sensor_id;sensor_type;location;lat;lon;timestamp;P1;durP1;ratioP1;P2;durP2;ratioP2
78772;SDS011;68111;44.728;11.290;2024-03-22T00:11:54;61.35;;;36.67;;
78772;SDS011;68111;44.728;11.290;2024-03-22T00:14:20;59.53;;;35.97;;
78772;SDS011;68111;44.728;11.290;2024-03-22T00:16:46;56.67;;;36.13;;
78772;SDS011;68111;44.728;11.290;2024-03-22T03:03:06;32.53;;;22.15;;
78772;SDS011;68111;44.728;11.290;2024-03-22T03:05:33;33.20;;;22.10;;
78772;SDS011;68111;44.728;11.290;2024-03-22T03:08:00;29.65;;;20.05;;
78772;SDS011;68111;44.728;11.290;2024-03-22T03:10:26;37.25;;;23.90;;
78772;SDS011;68111;44.728;11.290;2024-03-22T03:12:53;35.05;;;23.50;;
78772;SDS011;68111;44.728;11.290;2024-03-22T03:15:20;39.38;;;25.40;;
78772;SDS011;68111;44.728;11.290;2024-03-22T03:17:46;37.92;;;25.60;;
78772;SDS011;68111;44.728;11.290;2024-03-22T03:20:11;42.25;;;26.33;;
78772;SDS011;68111;44.728;11.290;2024-03-22T03:22:41;39.60;;;25.27;;
78772;SDS011;68111;44.728;11.290;2024-03-22T03:25:08;39.50;;;25.45;;
78772;SDS011;68111;44.728;11.290;2024-03-22T03:27:33;38.22;;;25.90;;
78772;SDS011;68111;44.728;11.290;2024-03-22T03:30:00;39.80;;;26.20;;
78772;SDS011;68111;44.728;11.290;2024-03-22T03:32:26;41.83;;;26.85;;
78772;SDS011;68111;44.728;11.290;2024-03-22T03:34:52;41.85;;;27.95;;
78772;SDS011;68111;44.728;11.290;2024-03-22T03:37:18;36.42;;;23.40;;
78772;SDS011;68111;44.728;11.290;2024-03-22T03:39:44;30.33;;;21.40;;
78772;SDS011;68111;44.728;11.290;2024-03-22T03:42:10;30.23;;;19.70;;
78772;SDS011;68111;44.728;11.290;2024-03-22T03:44:36;29.58;;;20.40;;
78772;SDS011;68111;44.728;11.290;2024-03-22T03:47:02;31.75;;;21.45;;
78772;SDS011;68111;44.728;11.290;2024-03-22T03:49:28;33.40;;;21.75;;
78772;SDS011;68111;44.728;11.290;2024-03-22T03:51:53;21.15;;;16.23;;
78772;SDS011;68111;44.728;11.290;2024-03-22T03:54:19;19.33;;;14.43;;
78772;SDS011;68111;44.728;11.290;2024-03-22T06:40:38;29.95;;;17.27;;
78772;SDS011;68111;44.728;11.290;2024-03-22T06:43:04;30.23;;;18.17;;
78772;SDS011;68111;44.728;11.290;2024-03-22T06:45:34;47.60;;;18.20;;
78772;SDS011;68111;44.728;11.290;2024-03-22T06:48:00;26.58;;;17.35;;
78772;SDS011;68111;44.728;11.290;2024-03-22T06:50:26;36.80;;;25.00;;
78772;SDS011;68111;44.728;11.290;2024-03-22T06:52:52;37.28;;;24.77;;
78772;SDS011;68111;44.728;11.290;2024-03-22T06:55:22;49.17;;;29.93;;
78772;SDS011;68111;44.728;11.290;2024-03-22T06:57:48;36.85;;;22.58;;
78772;SDS011;68111;44.728;11.290;2024-03-22T07:50:11;25.85;;;17.35;;
78772;SDS011;68111;44.728;11.290;2024-03-22T08:27:47;32.75;;;21.67;;
78772;SDS011;68111;44.728;11.290;2024-03-22T10:35:53;34.63;;;25.75;;
78772;SDS011;68111;44.728;11.290;2024-03-22T10:38:20;37.00;;;28.80;;
78772;SDS011;68111;44.728;11.290;2024-03-22T11:20:11;19.60;;;13.77;;
78772;SDS011;68111;44.728;11.290;2024-03-22T11:22:38;17.23;;;11.40;;
78772;SDS011;68111;44.728;11.290;2024-03-22T11:25:04;18.27;;;13.75;;
78772;SDS011;68111;44.728;11.290;2024-03-22T11:27:31;15.30;;;11.18;;
78772;SDS011;68111;44.728;11.290;2024-03-22T11:29:57;9.57;;;6.38;;
78772;SDS011;68111;44.728;11.290;2024-03-22T11:32:23;14.35;;;9.88;;
78772;SDS011;68111;44.728;11.290;2024-03-22T11:34:49;15.57;;;11.02;;
78772;SDS011;68111;44.728;11.290;2024-03-22T11:37:15;15.38;;;9.82;;
78772;SDS011;68111;44.728;11.290;2024-03-22T11:39:41;16.35;;;9.65;;
78772;SDS011;68111;44.728;11.290;2024-03-22T11:42:07;14.40;;;9.95;;
78772;SDS011;68111;44.728;11.290;2024-03-22T11:44:35;17.42;;;11.80;;
78772;SDS011;68111;44.728;11.290;2024-03-22T11:47:03;16.85;;;11.10;;
78772;SDS011;68111;44.728;11.290;2024-03-22T11:49:29;13.32;;;9.50;;
78772;SDS011;68111;44.728;11.290;2024-03-22T11:51:56;15.43;;;10.63;;
78772;SDS011;68111;44.728;11.290;2024-03-22T11:54:22;14.15;;;9.13;;
78772;SDS011;68111;44.728;11.290;2024-03-22T11:56:51;13.30;;;8.77;;
78772;SDS011;68111;44.728;11.290;2024-03-22T12:02:34;15.05;;;10.52;;
78772;SDS011;68111;44.728;11.290;2024-03-22T12:05:02;14.45;;;8.88;;
78772;SDS011;68111;44.728;11.290;2024-03-22T12:07:29;15.10;;;9.10;;
78772;SDS011;68111;44.728;11.290;2024-03-22T12:09:55;14.05;;;9.82;;
78772;SDS011;68111;44.728;11.290;2024-03-22T12:12:21;14.18;;;9.75;;
78772;SDS011;68111;44.728;11.290;2024-03-22T12:14:50;12.75;;;8.60;;
78772;SDS011;68111;44.728;11.290;2024-03-22T12:17:16;11.75;;;7.72;;
78772;SDS011;68111;44.728;11.290;2024-03-22T12:19:42;12.60;;;8.10;;
78772;SDS011;68111;44.728;11.290;2024-03-22T12:22:09;11.80;;;7.90;;
78772;SDS011;68111;44.728;11.290;2024-03-22T12:24:35;11.68;;;7.65;;
78772;SDS011;68111;44.728;11.290;2024-03-22T12:27:02;13.43;;;8.52;;
78772;SDS011;68111;44.728;11.290;2024-03-22T12:29:27;14.68;;;8.55;;
78772;SDS011;68111;44.728;11.290;2024-03-22T12:31:53;14.00;;;9.25;;
78772;SDS011;68111;44.728;11.290;2024-03-22T12:34:20;15.15;;;8.90;;
78772;SDS011;68111;44.728;11.290;2024-03-22T12:36:45;13.25;;;9.48;;
78772;SDS011;68111;44.728;11.290;2024-03-22T12:39:11;12.55;;;8.80;;
78772;SDS011;68111;44.728;11.290;2024-03-22T12:41:37;13.32;;;8.73;;
78772;SDS011;68111;44.728;11.290;2024-03-22T12:44:03;11.57;;;7.53;;
78772;SDS011;68111;44.728;11.290;2024-03-22T12:46:29;13.63;;;8.52;;
78772;SDS011;68111;44.728;11.290;2024-03-22T12:48:56;11.00;;;7.38;;
78772;SDS011;68111;44.728;11.290;2024-03-22T12:51:21;12.98;;;8.85;;
78772;SDS011;68111;44.728;11.290;2024-03-22T12:53:47;17.05;;;10.80;;
78772;SDS011;68111;44.728;11.290;2024-03-22T12:56:13;14.70;;;10.23;;
78772;SDS011;68111;44.728;11.290;2024-03-22T12:58:39;16.10;;;9.98;;
78772;SDS011;68111;44.728;11.290;2024-03-22T13:01:05;16.98;;;10.48;;
78772;SDS011;68111;44.728;11.290;2024-03-22T13:03:34;15.35;;;11.02;;
78772;SDS011;68111;44.728;11.290;2024-03-22T13:06:00;16.95;;;11.98;;
78772;SDS011;68111;44.728;11.290;2024-03-22T13:08:26;14.60;;;10.50;;
78772;SDS011;68111;44.728;11.290;2024-03-22T13:10:51;16.67;;;11.55;;
78772;SDS011;68111;44.728;11.290;2024-03-22T13:13:18;16.55;;;11.02;;
78772;SDS011;68111;44.728;11.290;2024-03-22T13:15:44;19.00;;;11.15;;
78772;SDS011;68111;44.728;11.290;2024-03-22T13:18:10;15.30;;;10.10;;
78772;SDS011;68111;44.728;11.290;2024-03-22T13:20:36;13.07;;;8.93;;
78772;SDS011;68111;44.728;11.290;2024-03-22T13:23:02;14.93;;;8.43;;
78772;SDS011;68111;44.728;11.290;2024-03-22T13:25:28;15.00;;;9.77;;
78772;SDS011;68111;44.728;11.290;2024-03-22T13:27:54;16.63;;;9.07;;
78772;SDS011;68111;44.728;11.290;2024-03-22T14:20:46;10.20;;;6.22;;
78772;SDS011;68111;44.728;11.290;2024-03-22T14:23:12;12.05;;;7.82;;
78772;SDS011;68111;44.728;11.290;2024-03-22T14:25:37;12.52;;;7.28;;
78772;SDS011;68111;44.728;11.290;2024-03-22T14:28:03;10.95;;;6.38;;
78772;SDS011;68111;44.728;11.290;2024-03-22T14:30:29;11.32;;;7.60;;
78772;SDS011;68111;44.728;11.290;2024-03-22T14:32:55;10.77;;;7.25;;
78772;SDS011;68111;44.728;11.290;2024-03-22T14:35:21;11.20;;;6.82;;
78772;SDS011;68111;44.728;11.290;2024-03-22T14:37:48;11.68;;;7.60;;
78772;SDS011;68111;44.728;11.290;2024-03-22T14:40:13;11.98;;;7.50;;
78772;SDS011;68111;44.728;11.290;2024-03-22T14:42:40;13.52;;;8.68;;
78772;SDS011;68111;44.728;11.290;2024-03-22T14:45:06;11.52;;;7.75;;
78772;SDS011;68111;44.728;11.290;2024-03-22T14:47:35;10.52;;;6.03;;
78772;SDS011;68111;44.728;11.290;2024-03-22T14:50:01;14.25;;;7.57;;
78772;SDS011;68111;44.728;11.290;2024-03-22T14:52:27;12.02;;;7.75;;
78772;SDS011;68111;44.728;11.290;2024-03-22T14:54:53;15.20;;;8.38;;
78772;SDS011;68111;44.728;11.290;2024-03-22T14:57:19;11.30;;;8.02;;
78772;SDS011;68111;44.728;11.290;2024-03-22T14:59:45;11.60;;;7.35;;
78772;SDS011;68111;44.728;11.290;2024-03-22T15:02:13;11.52;;;7.85;;
78772;SDS011;68111;44.728;11.290;2024-03-22T15:04:39;14.75;;;8.10;;
78772;SDS011;68111;44.728;11.290;2024-03-22T15:07:05;13.40;;;8.27;;
78772;SDS011;68111;44.728;11.290;2024-03-22T15:09:31;12.80;;;7.70;;
78772;SDS011;68111;44.728;11.290;2024-03-22T15:11:57;14.32;;;7.95;;
78772;SDS011;68111;44.728;11.290;2024-03-22T15:14:27;14.75;;;8.18;;
78772;SDS011;68111;44.728;11.290;2024-03-22T15:16:56;10.48;;;5.88;;
78772;SDS011;68111;44.728;11.290;2024-03-22T15:19:22;14.43;;;7.18;;
78772;SDS011;68111;44.728;11.290;2024-03-22T15:21:48;13.63;;;7.95;;
78772;SDS011;68111;44.728;11.290;2024-03-22T15:24:14;9.77;;;5.40;;
78772;SDS011;68111;44.728;11.290;2024-03-22T15:26:40;12.88;;;7.53;;
78772;SDS011;68111;44.728;11.290;2024-03-22T15:29:06;11.05;;;7.53;;
78772;SDS011;68111;44.728;11.290;2024-03-22T15:31:32;13.38;;;8.50;;
78772;SDS011;68111;44.728;11.290;2024-03-22T15:34:01;10.00;;;6.07;;
78772;SDS011;68111;44.728;11.290;2024-03-22T15:36:27;13.15;;;6.68;;
78772;SDS011;68111;44.728;11.290;2024-03-22T15:38:54;14.73;;;8.73;;
78772;SDS011;68111;44.728;11.290;2024-03-22T15:41:20;11.50;;;7.70;;
78772;SDS011;68111;44.728;11.290;2024-03-22T15:43:46;12.20;;;7.60;;
78772;SDS011;68111;44.728;11.290;2024-03-22T15:46:12;10.85;;;7.18;;
78772;SDS011;68111;44.728;11.290;2024-03-22T15:48:38;12.13;;;8.23;;
78772;SDS011;68111;44.728;11.290;2024-03-22T15:51:04;11.45;;;7.07;;
78772;SDS011;68111;44.728;11.290;2024-03-22T15:53:30;12.43;;;8.02;;
78772;SDS011;68111;44.728;11.290;2024-03-22T15:55:56;12.70;;;7.57;;
78772;SDS011;68111;44.728;11.290;2024-03-22T15:58:22;12.25;;;7.55;;
78772;SDS011;68111;44.728;11.290;2024-03-22T16:00:47;15.38;;;7.75;;
78772;SDS011;68111;44.728;11.290;2024-03-22T16:03:13;11.95;;;8.23;;
78772;SDS011;68111;44.728;11.290;2024-03-22T16:05:48;11.45;;;7.78;;
78772;SDS011;68111;44.728;11.290;2024-03-22T16:08:17;13.10;;;7.55;;
78772;SDS011;68111;44.728;11.290;2024-03-22T16:10:43;14.50;;;9.00;;
78772;SDS011;68111;44.728;11.290;2024-03-22T16:13:10;13.52;;;8.30;;
78772;SDS011;68111;44.728;11.290;2024-03-22T16:15:36;10.88;;;7.22;;
78772;SDS011;68111;44.728;11.290;2024-03-22T16:18:02;11.88;;;7.97;;
78772;SDS011;68111;44.728;11.290;2024-03-22T16:20:28;13.48;;;8.05;;
78772;SDS011;68111;44.728;11.290;2024-03-22T16:22:54;11.63;;;7.68;;
78772;SDS011;68111;44.728;11.290;2024-03-22T16:25:20;12.55;;;7.88;;
78772;SDS011;68111;44.728;11.290;2024-03-22T16:27:46;12.88;;;7.93;;
78772;SDS011;68111;44.728;11.290;2024-03-22T16:30:12;12.68;;;7.57;;
78772;SDS011;68111;44.728;11.290;2024-03-22T16:32:38;11.15;;;7.50;;
78772;SDS011;68111;44.728;11.290;2024-03-22T16:35:04;11.70;;;7.53;;
78772;SDS011;68111;44.728;11.290;2024-03-22T16:37:34;11.20;;;7.35;;
78772;SDS011;68111;44.728;11.290;2024-03-22T16:40:02;11.20;;;6.93;;
78772;SDS011;68111;44.728;11.290;2024-03-22T16:42:28;10.10;;;6.45;;
78772;SDS011;68111;44.728;11.290;2024-03-22T16:44:57;11.60;;;6.65;;
78772;SDS011;68111;44.728;11.290;2024-03-22T16:47:23;9.88;;;6.30;;
78772;SDS011;68111;44.728;11.290;2024-03-22T16:49:49;11.85;;;7.03;;
78772;SDS011;68111;44.728;11.290;2024-03-22T16:55:28;11.68;;;7.13;;
78772;SDS011;68111;44.728;11.290;2024-03-22T16:57:54;10.65;;;6.30;;
78772;SDS011;68111;44.728;11.290;2024-03-22T17:00:23;11.02;;;6.47;;
78772;SDS011;68111;44.728;11.290;2024-03-22T17:02:49;9.35;;;5.95;;
78772;SDS011;68111;44.728;11.290;2024-03-22T17:05:15;11.13;;;6.90;;
78772;SDS011;68111;44.728;11.290;2024-03-22T17:07:40;10.30;;;6.45;;
78772;SDS011;68111;44.728;11.290;2024-03-22T17:10:06;11.32;;;6.47;;
78772;SDS011;68111;44.728;11.290;2024-03-22T17:12:32;11.30;;;6.60;;
78772;SDS011;68111;44.728;11.290;2024-03-22T17:14:58;11.80;;;6.25;;
78772;SDS011;68111;44.728;11.290;2024-03-22T17:17:26;9.18;;;6.28;;
78772;SDS011;68111;44.728;11.290;2024-03-22T17:19:52;11.10;;;6.47;;
78772;SDS011;68111;44.728;11.290;2024-03-22T17:22:18;9.93;;;6.75;;
78772;SDS011;68111;44.728;11.290;2024-03-22T17:24:45;11.77;;;7.03;;
78772;SDS011;68111;44.728;11.290;2024-03-22T17:27:11;11.73;;;7.10;;
78772;SDS011;68111;44.728;11.290;2024-03-22T17:29:37;9.57;;;6.30;;
78772;SDS011;68111;44.728;11.290;2024-03-22T17:32:04;11.20;;;6.68;;
78772;SDS011;68111;44.728;11.290;2024-03-22T17:34:30;12.52;;;7.72;;
78772;SDS011;68111;44.728;11.290;2024-03-22T17:37:00;14.18;;;7.03;;
78772;SDS011;68111;44.728;11.290;2024-03-22T17:39:26;11.70;;;6.70;;
78772;SDS011;68111;44.728;11.290;2024-03-22T17:41:52;12.35;;;7.18;;
78772;SDS011;68111;44.728;11.290;2024-03-22T17:44:18;11.63;;;7.03;;
78772;SDS011;68111;44.728;11.290;2024-03-22T17:46:43;10.73;;;7.20;;
78772;SDS011;68111;44.728;11.290;2024-03-22T17:49:09;13.32;;;7.40;;
78772;SDS011;68111;44.728;11.290;2024-03-22T17:51:35;10.85;;;7.38;;
78772;SDS011;68111;44.728;11.290;2024-03-22T17:54:01;14.00;;;7.80;;
78772;SDS011;68111;44.728;11.290;2024-03-22T17:56:27;11.70;;;7.47;;
78772;SDS011;68111;44.728;11.290;2024-03-22T17:58:53;10.68;;;7.10;;
78772;SDS011;68111;44.728;11.290;2024-03-22T18:01:18;12.02;;;8.25;;
78772;SDS011;68111;44.728;11.290;2024-03-22T18:03:44;12.80;;;7.53;;
78772;SDS011;68111;44.728;11.290;2024-03-22T18:06:10;12.98;;;7.75;;
78772;SDS011;68111;44.728;11.290;2024-03-22T18:08:35;12.20;;;7.85;;
78772;SDS011;68111;44.728;11.290;2024-03-22T18:11:01;14.05;;;7.85;;
78772;SDS011;68111;44.728;11.290;2024-03-22T18:13:27;11.73;;;7.88;;
78772;SDS011;68111;44.728;11.290;2024-03-22T18:15:53;13.57;;;7.95;;
78772;SDS011;68111;44.728;11.290;2024-03-22T18:18:20;12.85;;;9.18;;
78772;SDS011;68111;44.728;11.290;2024-03-22T18:20:49;17.88;;;9.68;;
78772;SDS011;68111;44.728;11.290;2024-03-22T18:23:15;13.98;;;9.00;;
78772;SDS011;68111;44.728;11.290;2024-03-22T18:25:43;13.15;;;8.85;;
78772;SDS011;68111;44.728;11.290;2024-03-22T18:28:09;15.02;;;9.00;;
78772;SDS011;68111;44.728;11.290;2024-03-22T18:30:35;14.45;;;9.02;;
78772;SDS011;68111;44.728;11.290;2024-03-22T18:33:01;14.90;;;9.50;;
78772;SDS011;68111;44.728;11.290;2024-03-22T18:35:27;13.65;;;9.38;;
78772;SDS011;68111;44.728;11.290;2024-03-22T18:37:53;15.88;;;9.98;;
78772;SDS011;68111;44.728;11.290;2024-03-22T18:40:20;15.35;;;9.40;;
78772;SDS011;68111;44.728;11.290;2024-03-22T18:42:46;16.30;;;10.10;;
78772;SDS011;68111;44.728;11.290;2024-03-22T18:45:11;14.98;;;9.25;;
78772;SDS011;68111;44.728;11.290;2024-03-22T18:47:38;15.65;;;10.15;;
78772;SDS011;68111;44.728;11.290;2024-03-22T18:50:04;16.70;;;9.73;;
78772;SDS011;68111;44.728;11.290;2024-03-22T19:04:43;17.90;;;10.65;;
78772;SDS011;68111;44.728;11.290;2024-03-22T19:07:10;16.60;;;10.32;;
78772;SDS011;68111;44.728;11.290;2024-03-22T19:09:35;16.02;;;9.85;;
78772;SDS011;68111;44.728;11.290;2024-03-22T19:12:01;18.38;;;10.13;;
78772;SDS011;68111;44.728;11.290;2024-03-22T19:14:32;17.52;;;9.85;;
78772;SDS011;68111;44.728;11.290;2024-03-22T19:16:58;16.67;;;9.57;;
78772;SDS011;68111;44.728;11.290;2024-03-22T19:19:24;16.75;;;9.68;;
78772;SDS011;68111;44.728;11.290;2024-03-22T19:21:50;18.45;;;11.20;;
78772;SDS011;68111;44.728;11.290;2024-03-22T19:24:16;14.55;;;10.07;;
78772;SDS011;68111;44.728;11.290;2024-03-22T19:26:43;18.23;;;11.18;;
78772;SDS011;68111;44.728;11.290;2024-03-22T19:29:13;18.25;;;10.80;;
78772;SDS011;68111;44.728;11.290;2024-03-22T19:31:39;17.65;;;10.57;;
78772;SDS011;68111;44.728;11.290;2024-03-22T19:34:09;18.02;;;10.82;;
78772;SDS011;68111;44.728;11.290;2024-03-22T19:36:38;23.58;;;13.85;;
78772;SDS011;68111;44.728;11.290;2024-03-22T19:39:04;26.58;;;13.88;;
78772;SDS011;68111;44.728;11.290;2024-03-22T19:41:37;18.67;;;12.18;;
78772;SDS011;68111;44.728;11.290;2024-03-22T19:44:05;17.73;;;12.32;;
78772;SDS011;68111;44.728;11.290;2024-03-22T19:46:32;20.27;;;12.63;;
78772;SDS011;68111;44.728;11.290;2024-03-22T19:48:58;18.10;;;12.50;;
78772;SDS011;68111;44.728;11.290;2024-03-22T19:51:24;20.63;;;11.82;;
78772;SDS011;68111;44.728;11.290;2024-03-22T19:53:52;16.50;;;11.18;;
78772;SDS011;68111;44.728;11.290;2024-03-22T19:56:18;17.63;;;11.25;;
78772;SDS011;68111;44.728;11.290;2024-03-22T19:58:44;24.20;;;14.95;;
78772;SDS011;68111;44.728;11.290;2024-03-22T20:01:11;23.15;;;14.50;;
78772;SDS011;68111;44.728;11.290;2024-03-22T20:03:38;24.13;;;14.73;;
78772;SDS011;68111;44.728;11.290;2024-03-22T20:06:04;19.98;;;12.95;;
78772;SDS011;68111;44.728;11.290;2024-03-22T20:08:31;20.77;;;13.00;;
78772;SDS011;68111;44.728;11.290;2024-03-22T20:10:57;20.67;;;13.50;;
78772;SDS011;68111;44.728;11.290;2024-03-22T20:13:23;20.95;;;13.55;;
78772;SDS011;68111;44.728;11.290;2024-03-22T20:15:49;20.75;;;14.02;;
78772;SDS011;68111;44.728;11.290;2024-03-22T20:18:16;19.42;;;12.85;;
78772;SDS011;68111;44.728;11.290;2024-03-22T20:20:43;23.95;;;14.75;;
78772;SDS011;68111;44.728;11.290;2024-03-22T20:23:09;23.35;;;14.15;;
78772;SDS011;68111;44.728;11.290;2024-03-22T20:25:35;22.52;;;14.55;;
78772;SDS011;68111;44.728;11.290;2024-03-22T20:28:02;22.13;;;14.70;;
78772;SDS011;68111;44.728;11.290;2024-03-22T20:30:29;21.25;;;13.55;;
78772;SDS011;68111;44.728;11.290;2024-03-22T20:32:56;21.08;;;13.98;;
78772;SDS011;68111;44.728;11.290;2024-03-22T20:35:22;20.95;;;13.23;;
